createdAt,value
2022-11-29T00:01:15.692Z,68.06
2022-11-29T00:03:43.340Z,67.76
2022-11-29T00:06:18.972Z,67.42
2022-11-29T00:08:48.105Z,68.04
2022-11-29T00:11:40.751Z,68.07
2022-11-29T00:14:36.918Z,68.56
2022-11-29T00:17:48.694Z,68.16
2022-11-29T00:20:40.411Z,68.91
2022-11-29T00:23:15.094Z,68.24
2022-11-29T00:25:41.752Z,68.66
2022-11-29T00:28:14.600Z,68.66
2022-11-29T00:31:15.965Z,68.58
2022-11-29T00:33:48.362Z,68.30
2022-11-29T00:36:40.370Z,68.25
2022-11-29T00:39:12.181Z,68.50
2022-11-29T00:41:42.752Z,68.32
2022-11-29T00:44:13.901Z,68.51
2022-11-29T00:46:42.087Z,68.35
2022-11-29T00:49:08.857Z,68.53
2022-11-29T00:52:00.239Z,69.16
2022-11-29T00:54:26.825Z,68.64
2022-11-29T00:56:59.270Z,68.92
2022-11-29T00:59:25.903Z,68.55
2022-11-29T01:01:52.580Z,68.50
2022-11-29T01:04:19.392Z,68.34
2022-11-29T01:06:46.016Z,69.13
2022-11-29T01:09:13.669Z,69.21
2022-11-29T01:11:40.341Z,69.05
2022-11-29T01:14:06.903Z,69.46
2022-11-29T01:16:33.768Z,69.91
2022-11-29T01:19:00.658Z,69.69
2022-11-29T01:21:27.497Z,68.90
2022-11-29T01:23:55.479Z,69.28
2022-11-29T01:26:29.187Z,69.04
2022-11-29T01:28:56.852Z,68.05
2022-11-29T01:31:26.571Z,68.37
2022-11-29T01:33:55.202Z,68.91
2022-11-29T01:36:26.230Z,68.76
2022-11-29T01:38:53.296Z,68.48
2022-11-29T01:41:25.423Z,68.68
2022-11-29T01:44:00.227Z,68.62
2022-11-29T01:46:33.249Z,68.92
2022-11-29T01:49:11.660Z,69.40
2022-11-29T01:52:01.747Z,68.68
2022-11-29T01:54:29.985Z,69.06
2022-11-29T01:56:57.661Z,68.87
2022-11-29T01:59:29.809Z,68.97
2022-11-29T02:02:03.325Z,68.60
2022-11-29T02:04:34.942Z,67.86
2022-11-29T02:07:03.291Z,68.30
2022-11-29T02:09:30.783Z,68.37
2022-11-29T02:12:31.554Z,68.98
2022-11-29T02:15:36.758Z,69.46
2022-11-29T02:18:44.684Z,68.64
2022-11-29T02:21:32.036Z,69.25
2022-11-29T02:24:44.510Z,69.25
2022-11-29T02:27:32.921Z,68.97
2022-11-29T02:30:35.258Z,69.05
2022-11-29T02:33:22.972Z,69.07
2022-11-29T02:36:01.306Z,69.20
2022-11-29T02:39:15.532Z,68.53
2022-11-29T02:41:49.019Z,68.88
2022-11-29T02:44:27.744Z,68.33
2022-11-29T02:47:07.053Z,68.28
2022-11-29T02:49:41.846Z,68.16
2022-11-29T02:52:17.486Z,68.75
2022-11-29T02:55:03.852Z,68.82
2022-11-29T02:57:46.019Z,68.35
2022-11-29T03:00:20.442Z,67.97
2022-11-29T03:02:56.083Z,68.71
2022-11-29T03:05:22.630Z,69.06
2022-11-29T03:08:26.350Z,68.56
2022-11-29T03:10:58.999Z,68.94
2022-11-29T03:14:07.078Z,68.51
2022-11-29T03:16:54.928Z,68.29
2022-11-29T03:19:21.379Z,68.33
2022-11-29T03:22:09.803Z,68.92
2022-11-29T03:24:56.304Z,68.76
2022-11-29T03:27:44.370Z,68.43
2022-11-29T03:30:13.828Z,68.96
2022-11-29T03:32:56.772Z,68.63
2022-11-29T03:36:04.845Z,68.74
2022-11-29T03:38:44.365Z,69.20
2022-11-29T03:41:27.769Z,68.91
2022-11-29T03:44:07.123Z,68.60
2022-11-29T03:46:52.509Z,68.36
2022-11-29T03:49:34.560Z,68.60
2022-11-29T03:52:01.169Z,68.25
2022-11-29T03:55:00.619Z,68.49
2022-11-29T03:57:53.260Z,68.74
2022-11-29T04:00:20.179Z,69.02
2022-11-29T04:02:53.347Z,68.44
2022-11-29T04:05:41.699Z,68.55
2022-11-29T04:08:31.856Z,68.75
2022-11-29T04:11:20.339Z,69.09
2022-11-29T04:14:03.269Z,69.19
2022-11-29T04:17:07.306Z,68.76
2022-11-29T04:20:09.384Z,68.90
2022-11-29T04:23:14.793Z,68.87
2022-11-29T04:26:18.627Z,68.79
2022-11-29T04:28:57.424Z,68.74
2022-11-29T04:31:33.179Z,68.67
2022-11-29T04:34:21.550Z,68.83
2022-11-29T04:36:51.201Z,68.99
2022-11-29T04:39:17.647Z,68.54
2022-11-29T04:42:32.788Z,68.89
2022-11-29T04:45:17.976Z,68.77
2022-11-29T04:47:54.951Z,69.64
2022-11-29T04:50:43.307Z,68.93
2022-11-29T04:53:46.512Z,68.76
2022-11-29T04:56:25.141Z,69.73
2022-11-29T04:59:16.131Z,69.90
2022-11-29T05:02:01.099Z,70.40
2022-11-29T05:04:46.621Z,70.37
2022-11-29T05:07:24.661Z,70.78
2022-11-29T05:09:51.348Z,69.87
2022-11-29T05:12:26.910Z,70.34
2022-11-29T05:15:27.727Z,70.83
2022-11-29T05:18:15.548Z,70.18
2022-11-29T05:20:56.750Z,71.97
2022-11-29T05:23:51.500Z,70.88
2022-11-29T05:26:27.238Z,70.75
2022-11-29T05:29:03.968Z,70.57
2022-11-29T05:31:55.318Z,71.02
2022-11-29T05:34:35.146Z,70.69
2022-11-29T05:37:08.523Z,70.58
2022-11-29T05:39:41.548Z,70.84
2022-11-29T05:42:50.649Z,71.00
2022-11-29T05:45:50.036Z,71.04
2022-11-29T05:48:31.688Z,71.21
2022-11-29T05:51:22.648Z,70.66
2022-11-29T05:54:04.772Z,70.61
2022-11-29T05:57:05.950Z,70.24
2022-11-29T05:59:34.387Z,69.69
2022-11-29T06:02:27.965Z,70.13
2022-11-29T06:05:00.578Z,70.24
2022-11-29T06:08:00.882Z,70.31
2022-11-29T06:10:33.676Z,70.18
2022-11-29T06:13:22.078Z,70.14
2022-11-29T06:16:03.979Z,70.52
2022-11-29T06:18:33.529Z,70.50
2022-11-29T06:21:06.118Z,69.75
2022-11-29T06:23:48.459Z,70.05
2022-11-29T06:26:29.195Z,69.85
2022-11-29T06:29:33.221Z,70.09
2022-11-29T06:32:22.346Z,70.54
2022-11-29T06:35:09.364Z,70.55
2022-11-29T06:37:39.633Z,70.42
2022-11-29T06:40:10.169Z,70.44
2022-11-29T06:42:36.732Z,69.83
2022-11-29T06:45:05.076Z,70.00
2022-11-29T06:48:00.462Z,70.06
2022-11-29T06:50:46.107Z,69.69
2022-11-29T06:53:21.717Z,69.71
2022-11-29T06:56:18.137Z,69.96
2022-11-29T06:59:03.177Z,69.86
2022-11-29T07:01:45.670Z,69.92
2022-11-29T07:04:34.242Z,69.46
2022-11-29T07:07:01.648Z,69.81
2022-11-29T07:09:34.460Z,69.49
2022-11-29T07:12:01.658Z,69.70
2022-11-29T07:14:28.534Z,69.27
2022-11-29T07:17:21.331Z,69.25
2022-11-29T07:20:01.538Z,69.76
2022-11-29T07:22:31.105Z,69.71
2022-11-29T07:25:15.648Z,69.41
2022-11-29T07:27:49.495Z,69.17
2022-11-29T07:30:20.412Z,70.22
2022-11-29T07:33:05.650Z,69.92
2022-11-29T07:35:44.349Z,69.58
2022-11-29T07:38:25.916Z,69.47
2022-11-29T07:41:18.748Z,69.97
2022-11-29T07:43:51.667Z,69.65
2022-11-29T07:46:18.424Z,69.97
2022-11-29T07:49:09.388Z,69.71
2022-11-29T07:51:36.214Z,69.28
2022-11-29T07:54:03.085Z,68.98
2022-11-29T07:56:41.685Z,69.37
2022-11-29T07:59:12.771Z,69.66
2022-11-29T08:01:39.876Z,70.25
2022-11-29T08:04:08.084Z,69.73
2022-11-29T08:06:40.584Z,69.73
2022-11-29T08:09:07.585Z,69.73
2022-11-29T08:11:34.291Z,70.26
2022-11-29T08:14:01.755Z,69.45
2022-11-29T08:16:28.447Z,69.24
2022-11-29T08:18:55.067Z,69.99
2022-11-29T08:21:21.693Z,69.96
2022-11-29T08:23:49.604Z,70.10
2022-11-29T08:26:17.411Z,69.68
2022-11-29T08:28:44.627Z,69.34
2022-11-29T08:31:13.059Z,69.88
2022-11-29T08:33:42.584Z,70.17
2022-11-29T08:36:11.703Z,69.62
2022-11-29T08:38:38.247Z,70.01
2022-11-29T08:41:06.474Z,69.96
2022-11-29T08:43:33.368Z,69.76
2022-11-29T08:46:00.060Z,68.98
2022-11-29T08:48:26.965Z,69.37
2022-11-29T08:50:54.811Z,69.70
2022-11-29T08:53:41.487Z,69.35
2022-11-29T08:56:53.321Z,69.34
2022-11-29T08:59:00.643Z,69.39
2022-11-29T09:01:27.378Z,69.56
2022-11-29T09:03:59.809Z,69.35
2022-11-29T09:06:41.274Z,70.29
2022-11-29T09:09:07.987Z,70.49
2022-11-29T09:11:36.265Z,70.03
2022-11-29T09:14:04.152Z,70.19
2022-11-29T09:16:33.619Z,70.12
2022-11-29T09:19:00.430Z,70.11
2022-11-29T09:21:27.948Z,70.33
2022-11-29T09:23:59.039Z,70.42
2022-11-29T09:26:28.026Z,70.57
2022-11-29T09:28:57.855Z,71.26
2022-11-29T09:31:24.590Z,70.20
2022-11-29T09:33:51.189Z,70.59
2022-11-29T09:36:17.745Z,70.26
2022-11-29T09:38:44.760Z,70.52
2022-11-29T09:41:25.190Z,70.58
2022-11-29T09:43:54.803Z,71.12
2022-11-29T09:46:21.697Z,70.22
2022-11-29T09:49:28.649Z,70.11
2022-11-29T09:51:58.266Z,70.70
2022-11-29T09:54:31.332Z,70.54
2022-11-29T09:56:58.194Z,69.97
2022-11-29T09:59:34.306Z,70.72
2022-11-29T10:02:15.941Z,70.14
2022-11-29T10:04:56.615Z,69.60
2022-11-29T10:07:40.807Z,70.11
2022-11-29T10:10:15.164Z,69.92
2022-11-29T10:12:49.088Z,69.78
2022-11-29T10:15:22.334Z,70.48
2022-11-29T10:18:01.025Z,70.70
2022-11-29T10:20:33.377Z,70.65
2022-11-29T10:23:11.400Z,70.73
2022-11-29T10:25:44.342Z,71.03
2022-11-29T10:28:15.164Z,70.81
2022-11-29T10:30:43.172Z,70.94
2022-11-29T10:33:16.754Z,70.56
2022-11-29T10:35:44.123Z,70.28
2022-11-29T10:38:30.310Z,69.54
2022-11-29T10:41:04.984Z,70.06
2022-11-29T10:43:31.840Z,69.66
2022-11-29T10:45:58.751Z,69.26
2022-11-29T10:48:28.807Z,69.73
2022-11-29T10:50:55.288Z,69.77
2022-11-29T10:53:36.079Z,70.56
2022-11-29T10:56:17.229Z,69.78
2022-11-29T10:59:06.115Z,70.34
2022-11-29T11:01:43.502Z,70.05
2022-11-29T11:04:30.402Z,70.44
2022-11-29T11:07:01.134Z,71.18
2022-11-29T11:09:50.905Z,70.04
2022-11-29T11:12:23.581Z,69.79
2022-11-29T11:14:51.423Z,69.28
2022-11-29T11:17:25.921Z,70.11
2022-11-29T11:19:58.664Z,69.78
2022-11-29T11:22:25.852Z,69.39
2022-11-29T11:24:58.844Z,70.70
2022-11-29T11:27:37.389Z,70.48
2022-11-29T11:30:06.483Z,69.82
2022-11-29T11:32:33.019Z,71.05
2022-11-29T11:35:01.774Z,70.14
2022-11-29T11:37:32.796Z,69.41
2022-11-29T11:40:18.356Z,70.63
2022-11-29T11:42:45.045Z,70.33
2022-11-29T11:45:11.517Z,70.83
2022-11-29T11:47:43.088Z,70.26
2022-11-29T11:50:24.965Z,71.56
2022-11-29T11:52:53.851Z,71.14
2022-11-29T11:55:39.682Z,70.69
2022-11-29T11:58:16.314Z,69.70
2022-11-29T12:01:04.085Z,70.39
2022-11-29T12:03:34.980Z,71.17
2022-11-29T12:06:30.038Z,71.75
2022-11-29T12:09:35.243Z,71.35
2022-11-29T12:12:11.621Z,70.71
2022-11-29T12:15:01.679Z,71.08
2022-11-29T12:17:37.266Z,70.58
2022-11-29T12:20:19.123Z,69.56
2022-11-29T12:22:50.731Z,70.38
2022-11-29T12:25:27.847Z,69.72
2022-11-29T12:27:54.429Z,69.43
2022-11-29T12:30:21.096Z,69.20
2022-11-29T12:32:48.413Z,70.14
2022-11-29T12:35:23.635Z,69.76
2022-11-29T12:37:56.486Z,70.14
2022-11-29T12:40:44.571Z,70.14
2022-11-29T12:43:26.529Z,70.57
2022-11-29T12:46:09.150Z,70.42
2022-11-29T12:48:47.810Z,70.23
2022-11-29T12:51:41.983Z,70.32
2022-11-29T12:54:36.181Z,70.40
2022-11-29T12:57:15.642Z,69.51
2022-11-29T12:59:57.488Z,70.12
2022-11-29T13:03:01.598Z,70.06
2022-11-29T13:05:31.182Z,70.69
2022-11-29T13:08:22.005Z,70.70
2022-11-29T13:11:20.986Z,70.24
2022-11-29T13:14:34.541Z,70.24
2022-11-29T13:17:04.051Z,69.76
2022-11-29T13:19:33.521Z,69.71
2022-11-29T13:22:15.704Z,70.12
2022-11-29T13:25:03.958Z,69.64
2022-11-29T13:27:34.735Z,70.12
2022-11-29T13:30:01.934Z,69.92
2022-11-29T13:32:34.524Z,69.89
2022-11-29T13:35:11.646Z,70.15
2022-11-29T13:37:45.078Z,69.50
2022-11-29T13:40:37.773Z,69.29
2022-11-29T13:43:24.765Z,69.54
2022-11-29T13:46:10.319Z,71.08
2022-11-29T13:48:47.840Z,70.66
2022-11-29T13:51:31.181Z,70.14
2022-11-29T13:54:01.000Z,70.02
2022-11-29T13:56:36.138Z,69.87
2022-11-29T13:59:08.437Z,70.24
2022-11-29T14:01:54.034Z,70.04
2022-11-29T14:04:28.007Z,69.93
2022-11-29T14:07:08.266Z,69.45
2022-11-29T14:10:05.071Z,69.32
2022-11-29T14:12:51.061Z,70.18
2022-11-29T14:15:28.730Z,69.31
2022-11-29T14:17:59.622Z,69.33
2022-11-29T14:20:28.321Z,69.58
2022-11-29T14:23:04.177Z,68.82
2022-11-29T14:25:51.123Z,68.82
2022-11-29T14:28:21.579Z,69.72
2022-11-29T14:30:52.932Z,70.07
2022-11-29T14:33:31.636Z,69.38
2022-11-29T14:36:20.167Z,70.09
2022-11-29T14:39:01.285Z,69.74
2022-11-29T14:42:06.198Z,69.18
2022-11-29T14:44:34.440Z,68.62
2022-11-29T14:47:07.261Z,68.68
2022-11-29T14:49:43.021Z,68.68
2022-11-29T14:52:15.735Z,69.14
2022-11-29T14:55:05.878Z,69.38
2022-11-29T14:57:47.906Z,69.28
2022-11-29T15:00:16.103Z,69.22
2022-11-29T15:03:04.041Z,69.02
2022-11-29T15:05:50.921Z,69.26
2022-11-29T15:08:26.707Z,68.86
2022-11-29T15:10:57.169Z,68.89
2022-11-29T15:13:27.973Z,68.99
2022-11-29T15:16:16.003Z,69.61
2022-11-29T15:19:06.024Z,68.90
2022-11-29T15:21:50.860Z,69.21
2022-11-29T15:24:18.008Z,69.07
2022-11-29T15:27:08.288Z,68.71
2022-11-29T15:29:34.912Z,69.29
2022-11-29T15:32:05.605Z,69.37
2022-11-29T15:34:37.458Z,69.82
2022-11-29T15:37:04.204Z,69.77
2022-11-29T15:39:35.742Z,69.90
2022-11-29T15:42:14.398Z,69.97
2022-11-29T15:44:46.262Z,70.58
2022-11-29T15:47:24.496Z,69.90
2022-11-29T15:49:52.611Z,69.19
2022-11-29T15:52:30.063Z,69.23
2022-11-29T15:55:02.715Z,69.34
2022-11-29T15:57:31.656Z,69.64
2022-11-29T16:00:01.779Z,69.48
2022-11-29T16:02:31.044Z,69.25
2022-11-29T16:05:14.586Z,69.70
2022-11-29T16:07:41.756Z,69.46
2022-11-29T16:10:16.446Z,69.75
2022-11-29T16:12:56.120Z,70.25
2022-11-29T16:15:30.627Z,70.03
2022-11-29T16:18:13.822Z,70.72
2022-11-29T16:20:40.778Z,70.62
2022-11-29T16:23:13.002Z,70.42
2022-11-29T16:25:59.659Z,69.48
2022-11-29T16:28:33.816Z,70.56
2022-11-29T16:31:00.760Z,70.42
2022-11-29T16:33:27.497Z,70.06
2022-11-29T16:36:11.433Z,70.25
2022-11-29T16:38:44.124Z,70.33
2022-11-29T16:41:37.833Z,69.90
2022-11-29T16:44:06.399Z,69.14
2022-11-29T16:46:38.756Z,69.28
2022-11-29T16:49:30.358Z,69.14
2022-11-29T16:51:57.622Z,68.67
2022-11-29T16:54:27.370Z,68.39
2022-11-29T16:56:56.007Z,69.16
2022-11-29T16:59:27.305Z,68.53
2022-11-29T17:01:55.464Z,68.22
2022-11-29T17:04:23.734Z,68.35
2022-11-29T17:06:52.820Z,68.46
2022-11-29T17:09:26.000Z,68.56
2022-11-29T17:11:53.210Z,68.98
2022-11-29T17:14:19.863Z,68.15
2022-11-29T17:16:49.304Z,69.09
2022-11-29T17:19:16.097Z,69.17
2022-11-29T17:21:42.651Z,68.86
2022-11-29T17:24:14.199Z,68.97
2022-11-29T17:26:41.412Z,68.79
2022-11-29T17:29:13.197Z,69.61
2022-11-29T17:31:40.030Z,68.82
2022-11-29T17:34:06.729Z,68.43
2022-11-29T17:36:33.370Z,68.37
2022-11-29T17:39:00.537Z,68.83
2022-11-29T17:41:28.203Z,68.88
2022-11-29T17:43:55.811Z,68.52
2022-11-29T17:46:30.831Z,68.26
2022-11-29T17:49:01.967Z,68.36
2022-11-29T17:51:51.227Z,68.59
2022-11-29T17:54:15.445Z,68.28
2022-11-29T17:56:42.005Z,68.45
2022-11-29T17:59:08.549Z,68.50
2022-11-29T18:01:36.079Z,68.21
2022-11-29T18:04:05.157Z,68.42
2022-11-29T18:06:39.460Z,69.04
2022-11-29T18:09:07.879Z,68.55
2022-11-29T18:11:45.272Z,68.95
2022-11-29T18:14:16.564Z,68.53
2022-11-29T18:16:45.178Z,69.11
2022-11-29T18:19:14.074Z,68.77
2022-11-29T18:21:40.731Z,68.57
2022-11-29T18:24:08.847Z,68.42
2022-11-29T18:26:36.506Z,68.89
2022-11-29T18:29:04.130Z,68.98
2022-11-29T18:31:33.172Z,68.45
2022-11-29T18:34:01.711Z,69.53
2022-11-29T18:36:30.978Z,69.24
2022-11-29T18:39:07.199Z,69.51
2022-11-29T18:41:34.100Z,68.50
2022-11-29T18:44:03.348Z,69.52
2022-11-29T18:46:32.402Z,69.58
2022-11-29T18:49:01.181Z,68.70
2022-11-29T18:51:29.275Z,68.96
2022-11-29T18:53:55.890Z,68.37
2022-11-29T18:56:23.764Z,68.72
2022-11-29T18:58:59.199Z,68.29
2022-11-29T19:01:28.080Z,67.75
2022-11-29T19:03:56.665Z,67.93
2022-11-29T19:06:39.438Z,68.05
2022-11-29T19:09:11.108Z,69.02
2022-11-29T19:11:37.664Z,68.79
2022-11-29T19:14:05.704Z,68.52
2022-11-29T19:16:32.691Z,68.43
2022-11-29T19:19:00.347Z,67.78
2022-11-29T19:21:28.874Z,68.00
2022-11-29T19:24:00.978Z,68.99
2022-11-29T19:26:30.133Z,68.78
2022-11-29T19:28:56.986Z,68.62
2022-11-29T19:31:25.126Z,69.48
2022-11-29T19:33:52.685Z,68.63
2022-11-29T19:36:24.819Z,68.32
2022-11-29T19:38:54.195Z,68.08
2022-11-29T19:41:22.125Z,68.44
2022-11-29T19:43:49.232Z,69.02
2022-11-29T19:46:21.184Z,69.10
2022-11-29T19:48:48.275Z,69.19
2022-11-29T19:51:18.674Z,69.54
2022-11-29T19:53:46.162Z,69.45
2022-11-29T19:56:15.309Z,69.06
2022-11-29T19:58:42.677Z,69.20
2022-11-29T20:01:24.907Z,68.87
2022-11-29T20:03:52.270Z,68.76
2022-11-29T20:06:18.995Z,68.63
2022-11-29T20:08:45.551Z,69.54
2022-11-29T20:11:13.387Z,68.85
2022-11-29T20:13:41.698Z,69.21
2022-11-29T20:16:10.631Z,69.22
2022-11-29T20:18:39.340Z,67.94
2022-11-29T20:21:14.072Z,68.02
2022-11-29T20:23:41.471Z,67.86
2022-11-29T20:26:13.523Z,68.41
2022-11-29T20:28:40.027Z,68.48
2022-11-29T20:31:08.160Z,68.49
2022-11-29T20:33:34.758Z,68.21
2022-11-29T20:36:40.331Z,68.60
2022-11-29T20:39:34.992Z,68.47
2022-11-29T20:42:30.675Z,68.36
2022-11-29T20:44:57.502Z,68.38
2022-11-29T20:47:28.686Z,68.00
2022-11-29T20:49:56.104Z,68.14
2022-11-29T20:52:45.607Z,68.15
2022-11-29T20:55:12.189Z,68.91
2022-11-29T20:57:38.830Z,68.65
2022-11-29T21:00:13.799Z,68.77
2022-11-29T21:02:40.850Z,68.41
2022-11-29T21:05:08.531Z,68.61
2022-11-29T21:07:36.026Z,68.20
2022-11-29T21:10:02.878Z,67.87
2022-11-29T21:12:30.175Z,67.77
2022-11-29T21:14:57.394Z,68.49
2022-11-29T21:17:28.807Z,68.94
2022-11-29T21:20:00.271Z,68.42
2022-11-29T21:22:52.987Z,68.10
2022-11-29T21:25:48.826Z,68.29
2022-11-29T21:28:16.251Z,68.17
2022-11-29T21:30:43.669Z,68.53
2022-11-29T21:33:11.293Z,67.97
2022-11-29T21:35:39.842Z,67.97
2022-11-29T21:38:12.078Z,67.97
2022-11-29T21:40:38.675Z,69.05
2022-11-29T21:43:05.305Z,68.63
2022-11-29T21:45:31.873Z,69.20
2022-11-29T21:47:59.997Z,68.90
2022-11-29T21:50:26.446Z,68.80
2022-11-29T21:52:53.096Z,68.87
2022-11-29T21:55:20.153Z,68.91
2022-11-29T21:57:46.782Z,68.72
2022-11-29T22:00:14.026Z,70.42
2022-11-29T22:02:40.988Z,69.79
2022-11-29T22:05:09.479Z,70.43
2022-11-29T22:07:36.122Z,69.55
2022-11-29T22:10:10.010Z,69.57
2022-11-29T22:12:45.906Z,69.25
2022-11-29T22:15:24.194Z,69.17
2022-11-29T22:17:53.212Z,69.16
2022-11-29T22:20:20.154Z,69.16
2022-11-29T22:22:48.492Z,68.83
2022-11-29T22:25:15.653Z,69.27
2022-11-29T22:27:42.225Z,69.76
2022-11-29T22:30:09.887Z,70.27
2022-11-29T22:32:36.426Z,69.20
2022-11-29T22:35:03.034Z,69.44
2022-11-29T22:37:29.597Z,68.94
2022-11-29T22:39:56.192Z,69.33
2022-11-29T22:42:25.410Z,68.64
2022-11-29T22:44:52.209Z,69.18
2022-11-29T22:47:18.838Z,69.09
2022-11-29T22:49:45.359Z,69.25
2022-11-29T22:52:11.942Z,69.48
2022-11-29T22:54:38.584Z,69.19
2022-11-29T22:57:05.265Z,68.74
2022-11-29T22:59:32.173Z,69.20
2022-11-29T23:01:58.792Z,68.88
2022-11-29T23:04:25.431Z,69.00
2022-11-29T23:06:52.020Z,68.61
2022-11-29T23:09:21.963Z,69.48
2022-11-29T23:11:53.904Z,68.84
2022-11-29T23:14:22.020Z,68.59
2022-11-29T23:16:48.694Z,68.76
2022-11-29T23:19:16.061Z,68.55
2022-11-29T23:21:45.476Z,68.65
2022-11-29T23:24:12.862Z,69.04
2022-11-29T23:26:41.528Z,69.09
2022-11-29T23:29:12.048Z,68.78
2022-11-29T23:31:39.378Z,69.22
2022-11-29T23:34:06.039Z,68.36
2022-11-29T23:36:33.034Z,68.51
2022-11-29T23:39:00.384Z,68.64
2022-11-29T23:41:27.041Z,68.45
2022-11-29T23:43:53.747Z,68.88
2022-11-29T23:46:22.598Z,68.62
2022-11-29T23:48:49.440Z,68.74
2022-11-29T23:51:16.766Z,68.27
2022-11-29T23:53:43.870Z,68.68
2022-11-29T23:56:15.285Z,68.16
2022-11-29T23:58:42.710Z,68.11
